Terminal Aerodrome Forecast
Issued by NWS Mt. Holly, NJ

Current Version | Previous Version | Text Only | Print | Product List | Glossary On
Versions: 1 2 3 4 5 6 7 8 9 10 11 12 13 14 15 16 17 18 19 20 21 22 23 24 25
000
FTUS41 KPHI 300543
TAFTTN
TAF
KTTN 300543Z 3006/3106 VRB03KT P6SM BKN080
      TEMPO 3008/3012 3SM BR BKN015
     FM301400 18004KT P6SM BKN060
      TEMPO 3016/3020 SHRA OVC035
     FM302000 17004KT P6SM SHRA OVC035
     FM310100 14004KT 5SM SHRA BR OVC025
     FM310400 12004KT 3SM SHRA BR OVC010=

USA.gov is the U.S. government's official web portal to all federal, state and local government web resources and services.